Time;durP1;ratioP1;P1;durP2;ratioP2;P2;SDS_P1;SDS_P2;PMS_P1;PMS_P2;Temp;Humidity;BMP_temperature;BMP_pressure;BME280_temperature;BME280_humidity;BME280_pressure;Samples;Min_cycle;Max_cycle;Signal;HPM_P1;HPM_P2
2020/12/24 00:00:11;;;;;;;8.47;5.40;;;;;;;;;;5096300;28;20569;-72
2020/12/24 00:02:37;;;;;;;11.03;5.07;;;;;;;;;;5093235;28;20409;-70
2020/12/24 00:05:03;;;;;;;11.05;5.88;;;;;;;;;;5082146;28;20899;-71
2020/12/24 00:07:29;;;;;;;9.30;5.07;;;;;;;;;;5096413;28;20195;-71
2020/12/24 00:09:55;;;;;;;10.38;4.80;;;;;;;;;;5100128;28;20217;-72
2020/12/24 00:12:21;;;;;;;9.90;5.85;;;;;;;;;;5076282;28;20186;-72
2020/12/24 00:14:47;;;;;;;10.38;5.13;;;;;;;;;;5092638;28;20199;-72
2020/12/24 00:17:13;;;;;;;19.83;4.95;;;;;;;;;;5076116;28;20191;-72
2020/12/24 00:19:39;;;;;;;9.43;5.47;;;;;;;;;;5078288;28;20192;-71
2020/12/24 00:22:05;;;;;;;12.87;4.87;;;;;;;;;;5096654;28;20514;-71
2020/12/24 00:24:31;;;;;;;15.57;4.90;;;;;;;;;;5095905;28;20448;-71
2020/12/24 00:26:57;;;;;;;6.32;4.00;;;;;;;;;;5096248;28;20728;-72
2020/12/24 00:29:23;;;;;;;10.70;4.22;;;;;;;;;;5095368;28;20817;-71
2020/12/24 00:31:49;;;;;;;5.93;3.85;;;;;;;;;;5095607;28;20190;-72
2020/12/24 00:34:16;;;;;;;5.95;4.18;;;;;;;;;;5081412;28;20195;-71
2020/12/24 00:36:42;;;;;;;6.15;4.10;;;;;;;;;;5095301;28;20186;-72
2020/12/24 00:39:08;;;;;;;9.93;4.32;;;;;;;;;;5077609;28;20512;-71
2020/12/24 00:41:34;;;;;;;6.95;3.70;;;;;;;;;;5075563;28;20689;-71
2020/12/24 00:44:00;;;;;;;8.73;3.95;;;;;;;;;;5088990;28;20191;-73
2020/12/24 00:46:26;;;;;;;5.80;3.70;;;;;;;;;;5080422;28;20184;-72
2020/12/24 00:48:52;;;;;;;5.70;3.20;;;;;;;;;;5092638;28;20186;-73
2020/12/24 00:51:18;;;;;;;7.75;3.17;;;;;;;;;;5095352;28;20176;-72
2020/12/24 00:53:44;;;;;;;8.45;3.47;;;;;;;;;;5094992;28;20203;-72
2020/12/24 00:56:10;;;;;;;7.75;3.60;;;;;;;;;;5095498;28;20250;-72
2020/12/24 00:58:36;;;;;;;7.93;3.65;;;;;;;;;;5094938;28;20295;-72
2020/12/24 01:01:03;;;;;;;7.20;3.38;;;;;;;;;;5080808;28;20529;-73
2020/12/24 01:03:29;;;;;;;6.20;3.20;;;;;;;;;;5090772;28;20245;-71
2020/12/24 01:05:55;;;;;;;5.85;3.78;;;;;;;;;;5094976;28;20186;-72
2020/12/24 01:08:21;;;;;;;12.68;3.25;;;;;;;;;;5095081;28;20636;-71
2020/12/24 01:10:47;;;;;;;10.05;3.38;;;;;;;;;;5099254;28;20211;-73
2020/12/24 01:13:13;;;;;;;7.10;3.40;;;;;;;;;;5095142;28;20195;-72
2020/12/24 01:15:39;;;;;;;5.30;3.10;;;;;;;;;;5081489;28;20300;-73
2020/12/24 01:18:05;;;;;;;8.07;3.50;;;;;;;;;;5089399;28;20258;-72
2020/12/24 01:20:31;;;;;;;4.63;3.22;;;;;;;;;;5089503;28;20278;-73
2020/12/24 01:22:57;;;;;;;5.45;3.22;;;;;;;;;;5094659;28;20197;-73
2020/12/24 01:25:23;;;;;;;7.80;3.30;;;;;;;;;;5084386;28;20190;-72
2020/12/24 01:27:49;;;;;;;6.80;3.95;;;;;;;;;;5090598;28;20190;-72
2020/12/24 01:30:15;;;;;;;7.18;3.45;;;;;;;;;;5093234;28;20198;-71
2020/12/24 01:32:41;;;;;;;9.90;3.45;;;;;;;;;;5091366;28;20206;-71
2020/12/24 01:35:07;;;;;;;5.55;2.70;;;;;;;;;;5085096;28;20553;-72
2020/12/24 01:37:36;;;;;;;5.95;3.10;;;;;;;;;;5094501;28;20179;-73
2020/12/24 01:40:02;;;;;;;5.43;2.83;;;;;;;;;;5093801;28;20257;-71
2020/12/24 01:42:28;;;;;;;6.97;2.92;;;;;;;;;;5094698;28;20225;-71
2020/12/24 01:44:54;;;;;;;6.18;2.92;;;;;;;;;;5091412;28;20187;-72
2020/12/24 01:47:20;;;;;;;3.90;2.65;;;;;;;;;;5077966;28;20180;-72
2020/12/24 01:49:46;;;;;;;4.32;3.03;;;;;;;;;;5086943;28;20703;-72
2020/12/24 01:52:28;;;;;;;5.53;2.75;;;;;;;;;;5074188;28;20187;-72
2020/12/24 01:54:54;;;;;;;4.10;2.90;;;;;;;;;;5086232;28;20210;-72
2020/12/24 01:57:20;;;;;;;7.55;3.38;;;;;;;;;;5094476;28;20176;-72
2020/12/24 01:59:46;;;;;;;5.85;2.78;;;;;;;;;;5093551;28;20195;-71
2020/12/24 02:02:12;;;;;;;6.57;3.30;;;;;;;;;;5093336;28;20176;-73
2020/12/24 02:04:38;;;;;;;3.95;2.90;;;;;;;;;;5091788;28;20726;-72
2020/12/24 02:07:04;;;;;;;3.95;3.50;;;;;;;;;;5094021;28;20191;-71
2020/12/24 02:09:30;;;;;;;4.78;3.58;;;;;;;;;;5094683;28;20202;-71
2020/12/24 02:11:56;;;;;;;4.20;2.80;;;;;;;;;;5093981;28;20171;-71
2020/12/24 02:14:22;;;;;;;6.13;3.67;;;;;;;;;;5087041;28;20215;-71
2020/12/24 02:16:48;;;;;;;4.55;3.33;;;;;;;;;;5076081;28;20180;-70
2020/12/24 02:19:15;;;;;;;6.70;3.65;;;;;;;;;;5075859;28;20661;-72
2020/12/24 02:21:41;;;;;;;5.45;3.50;;;;;;;;;;5079265;28;20221;-72
2020/12/24 02:24:08;;;;;;;6.60;3.90;;;;;;;;;;5081197;28;20176;-71
2020/12/24 02:26:34;;;;;;;9.10;4.07;;;;;;;;;;5093149;28;20179;-71
2020/12/24 02:29:00;;;;;;;4.00;3.50;;;;;;;;;;5084089;28;20626;-72
2020/12/24 02:31:26;;;;;;;6.75;3.95;;;;;;;;;;5087160;28;20559;-72
2020/12/24 02:33:52;;;;;;;7.20;3.63;;;;;;;;;;5093284;28;20206;-71
2020/12/24 02:36:18;;;;;;;7.28;3.45;;;;;;;;;;5093313;28;20544;-73
2020/12/24 02:38:44;;;;;;;5.75;3.60;;;;;;;;;;5082183;28;20685;-72
2020/12/24 02:41:11;;;;;;;6.25;3.33;;;;;;;;;;5093438;28;20286;-71
2020/12/24 02:43:37;;;;;;;6.80;3.75;;;;;;;;;;5092978;28;20267;-70
2020/12/24 02:46:03;;;;;;;7.18;4.00;;;;;;;;;;5077705;28;20583;-72
2020/12/24 02:48:29;;;;;;;8.75;4.30;;;;;;;;;;5075495;28;20188;-71
2020/12/24 02:50:55;;;;;;;6.30;4.00;;;;;;;;;;5072971;28;20199;-72
2020/12/24 02:53:21;;;;;;;6.65;3.85;;;;;;;;;;5079835;28;20518;-72
2020/12/24 02:55:47;;;;;;;6.45;3.63;;;;;;;;;;5088015;28;20172;-71
2020/12/24 02:58:13;;;;;;;7.05;4.30;;;;;;;;;;5074570;28;20169;-72
2020/12/24 03:00:39;;;;;;;4.97;4.05;;;;;;;;;;5092240;28;20660;-73
2020/12/24 03:03:05;;;;;;;4.25;3.05;;;;;;;;;;5090866;28;20184;-72
2020/12/24 03:05:31;;;;;;;9.10;3.58;;;;;;;;;;5093034;28;20190;-73
2020/12/24 03:07:57;;;;;;;7.20;3.50;;;;;;;;;;5093037;28;20195;-73
2020/12/24 03:10:23;;;;;;;5.60;3.20;;;;;;;;;;5081879;28;20553;-71
2020/12/24 03:12:49;;;;;;;5.40;3.30;;;;;;;;;;5077658;28;20283;-73
2020/12/24 03:15:15;;;;;;;3.90;2.95;;;;;;;;;;5072491;28;20247;-72
2020/12/24 03:17:41;;;;;;;4.75;2.83;;;;;;;;;;5085358;28;20250;-71
2020/12/24 03:20:07;;;;;;;5.60;2.90;;;;;;;;;;5092751;28;20595;-71
2020/12/24 03:22:34;;;;;;;5.10;3.13;;;;;;;;;;5092521;28;20262;-72
2020/12/24 03:25:00;;;;;;;4.35;2.85;;;;;;;;;;5085222;28;20569;-72
2020/12/24 03:27:26;;;;;;;6.90;3.30;;;;;;;;;;5086902;28;20706;-71
2020/12/24 03:29:52;;;;;;;4.32;2.45;;;;;;;;;;5083219;28;20207;-72
2020/12/24 03:32:18;;;;;;;3.60;2.38;;;;;;;;;;5092322;28;20176;-72
2020/12/24 03:34:44;;;;;;;6.53;2.45;;;;;;;;;;5081834;28;20215;-72
2020/12/24 03:37:10;;;;;;;3.75;2.42;;;;;;;;;;5072511;28;20259;-72
2020/12/24 03:39:36;;;;;;;3.28;2.10;;;;;;;;;;5080777;28;20196;-73
2020/12/24 03:42:02;;;;;;;3.20;2.22;;;;;;;;;;5072629;28;20176;-72
2020/12/24 03:44:28;;;;;;;3.72;2.60;;;;;;;;;;5085113;28;20670;-72
2020/12/24 03:46:54;;;;;;;4.80;2.60;;;;;;;;;;5092466;28;20228;-71
2020/12/24 03:49:20;;;;;;;4.88;2.63;;;;;;;;;;5092378;28;20496;-72
2020/12/24 03:51:46;;;;;;;3.25;2.13;;;;;;;;;;5092773;28;20179;-73
2020/12/24 03:54:12;;;;;;;2.85;2.55;;;;;;;;;;5089555;28;20268;-71
2020/12/24 03:56:38;;;;;;;3.20;2.38;;;;;;;;;;5089203;28;20225;-72
2020/12/24 03:59:04;;;;;;;2.90;2.28;;;;;;;;;;5080566;28;20172;-72
2020/12/24 04:01:30;;;;;;;4.70;2.63;;;;;;;;;;5075026;28;20548;-71
2020/12/24 04:03:56;;;;;;;3.85;2.58;;;;;;;;;;5086749;28;20189;-73
2020/12/24 04:06:23;;;;;;;4.65;2.75;;;;;;;;;;5092151;28;20182;-71
2020/12/24 04:08:49;;;;;;;4.20;2.40;;;;;;;;;;5091782;28;20228;-72
2020/12/24 04:11:15;;;;;;;3.35;2.30;;;;;;;;;;5098707;28;20196;-72
2020/12/24 04:13:41;;;;;;;6.30;2.55;;;;;;;;;;5081132;28;20269;-72
2020/12/24 04:16:07;;;;;;;3.60;2.50;;;;;;;;;;5096227;28;20172;-72
2020/12/24 04:18:33;;;;;;;4.55;2.72;;;;;;;;;;5095763;28;20186;-72
2020/12/24 04:20:59;;;;;;;3.17;2.30;;;;;;;;;;5095874;28;20209;-71
2020/12/24 04:23:25;;;;;;;2.80;2.50;;;;;;;;;;5092075;28;20577;-71
2020/12/24 04:25:51;;;;;;;3.03;2.35;;;;;;;;;;5093194;28;20215;-71
2020/12/24 04:28:17;;;;;;;4.45;2.25;;;;;;;;;;5091194;28;20180;-71
2020/12/24 04:30:43;;;;;;;3.15;2.00;;;;;;;;;;5080058;28;20199;-72
2020/12/24 04:33:12;;;;;;;4.70;2.03;;;;;;;;;;5085448;28;20539;-71
2020/12/24 04:35:38;;;;;;;3.13;2.05;;;;;;;;;;5091563;28;20232;-72
2020/12/24 04:38:06;;;;;;;2.40;1.90;;;;;;;;;;5095823;28;20634;-71
2020/12/24 04:40:33;;;;;;;2.45;1.70;;;;;;;;;;5083619;28;20203;-72
2020/12/24 04:42:59;;;;;;;2.10;1.65;;;;;;;;;;5081780;28;20183;-72
2020/12/24 04:45:26;;;;;;;2.50;1.70;;;;;;;;;;5075384;28;20183;-71
2020/12/24 04:47:56;;;;;;;2.25;1.83;;;;;;;;;;5088545;28;20172;-73
2020/12/24 04:50:25;;;;;;;2.85;1.90;;;;;;;;;;5088380;28;20544;-73
2020/12/24 04:52:51;;;;;;;2.40;1.80;;;;;;;;;;5075479;28;20173;-72
2020/12/24 04:55:17;;;;;;;2.03;1.50;;;;;;;;;;5074807;28;20184;-72
2020/12/24 04:57:43;;;;;;;2.05;1.38;;;;;;;;;;5081074;28;20183;-72
2020/12/24 05:00:10;;;;;;;2.47;1.33;;;;;;;;;;5095364;28;20196;-71
2020/12/24 05:02:36;;;;;;;2.08;1.40;;;;;;;;;;5094623;28;20187;-72
2020/12/24 05:05:03;;;;;;;2.10;1.52;;;;;;;;;;5093264;28;20183;-72
2020/12/24 05:07:29;;;;;;;2.05;1.45;;;;;;;;;;5095113;28;20217;-71
2020/12/24 05:09:55;;;;;;;4.07;1.60;;;;;;;;;;5104635;28;20281;-72
2020/12/24 05:12:31;;;;;;;2.22;1.70;;;;;;;;;;5080165;28;20585;-71
2020/12/24 05:14:57;;;;;;;4.03;2.72;;;;;;;;;;5090994;28;20207;-71
2020/12/24 05:17:24;;;;;;;3.47;1.83;;;;;;;;;;5094616;28;20167;-72
2020/12/24 05:19:59;;;;;;;2.10;1.70;;;;;;;;;;5095112;28;20195;-72
2020/12/24 05:22:25;;;;;;;2.45;1.92;;;;;;;;;;5094865;28;20175;-72
2020/12/24 05:24:51;;;;;;;2.78;1.75;;;;;;;;;;5087574;28;20540;-72
2020/12/24 05:27:22;;;;;;;2.17;1.55;;;;;;;;;;5086987;28;20464;-72
2020/12/24 05:29:49;;;;;;;2.92;2.00;;;;;;;;;;5082172;28;20204;-72
2020/12/24 05:32:15;;;;;;;2.95;1.60;;;;;;;;;;5077562;28;20190;-71
2020/12/24 05:34:41;;;;;;;2.20;1.40;;;;;;;;;;5091864;28;20203;-72
2020/12/24 05:37:11;;;;;;;2.65;1.45;;;;;;;;;;5084751;28;20180;-72
2020/12/24 05:39:37;;;;;;;2.25;1.30;;;;;;;;;;5077760;28;20689;-71
2020/12/24 05:42:04;;;;;;;2.00;1.40;;;;;;;;;;5074429;28;20176;-72
2020/12/24 05:44:30;;;;;;;2.15;1.60;;;;;;;;;;5082769;28;20183;-71
2020/12/24 05:46:56;;;;;;;5.10;3.15;;;;;;;;;;5093726;28;20179;-70
2020/12/24 05:49:23;;;;;;;3.00;2.05;;;;;;;;;;5094151;28;20256;-72
2020/12/24 05:51:50;;;;;;;3.00;2.08;;;;;;;;;;5094502;28;20186;-73
2020/12/24 05:54:16;;;;;;;6.45;3.53;;;;;;;;;;5093951;28;20195;-72
2020/12/24 05:56:43;;;;;;;1.90;1.33;;;;;;;;;;5093015;28;20171;-74
2020/12/24 05:59:16;;;;;;;4.43;3.20;;;;;;;;;;5083033;28;20575;-72
2020/12/24 06:01:57;;;;;;;2.88;1.88;;;;;;;;;;5081680;28;20184;-73
2020/12/24 06:04:28;;;;;;;2.75;1.40;;;;;;;;;;5091083;28;20201;-72
2020/12/24 06:07:02;;;;;;;2.25;1.55;;;;;;;;;;5085919;28;20192;-72
2020/12/24 06:09:35;;;;;;;3.35;1.60;;;;;;;;;;5093404;28;20206;-71
2020/12/24 06:12:09;;;;;;;2.50;1.80;;;;;;;;;;5073986;28;20510;-71
2020/12/24 06:14:35;;;;;;;2.60;1.60;;;;;;;;;;5074952;28;20211;-71
2020/12/24 06:17:08;;;;;;;2.10;1.45;;;;;;;;;;5086788;28;20199;-73
2020/12/24 06:19:38;;;;;;;1.83;1.10;;;;;;;;;;5093982;28;20195;-72
2020/12/24 06:22:05;;;;;;;3.10;1.42;;;;;;;;;;5093532;28;20181;-71
2020/12/24 06:24:35;;;;;;;1.95;1.17;;;;;;;;;;5089737;28;20188;-72
2020/12/24 06:27:07;;;;;;;2.50;1.77;;;;;;;;;;5093471;28;20293;-72
2020/12/24 06:29:36;;;;;;;2.30;1.58;;;;;;;;;;5093314;28;20269;-72
2020/12/24 06:32:03;;;;;;;3.20;1.50;;;;;;;;;;5074490;28;20187;-72
2020/12/24 06:34:30;;;;;;;2.05;1.40;;;;;;;;;;5085001;28;20203;-72
2020/12/24 06:36:56;;;;;;;2.85;1.60;;;;;;;;;;5087093;28;20226;-72
2020/12/24 06:39:52;;;;;;;2.30;1.60;;;;;;;;;;5090058;28;20199;-74
2020/12/24 06:42:39;;;;;;;2.50;1.58;;;;;;;;;;5092819;28;20194;-71
2020/12/24 06:45:10;;;;;;;2.92;1.92;;;;;;;;;;5092768;28;20220;-72
2020/12/24 06:47:37;;;;;;;2.10;1.50;;;;;;;;;;5093562;28;20184;-71
2020/12/24 06:50:23;;;;;;;3.38;1.90;;;;;;;;;;5085958;28;20681;-73
2020/12/24 06:52:49;;;;;;;2.10;1.40;;;;;;;;;;5089142;28;20206;-72
2020/12/24 06:55:16;;;;;;;2.97;1.80;;;;;;;;;;5091241;28;20164;-72
2020/12/24 06:57:45;;;;;;;2.50;1.80;;;;;;;;;;5086487;28;20518;-71
2020/12/24 07:00:13;;;;;;;2.38;1.85;;;;;;;;;;5073176;28;20569;-72
2020/12/24 07:02:39;;;;;;;3.00;1.98;;;;;;;;;;5078281;28;20258;-72
2020/12/24 07:05:05;;;;;;;2.60;1.90;;;;;;;;;;5077047;28;20168;-71
2020/12/24 07:07:45;;;;;;;2.80;2.45;;;;;;;;;;5090245;28;20252;-71
2020/12/24 07:10:30;;;;;;;2.85;2.45;;;;;;;;;;5087948;28;20663;-72
2020/12/24 07:12:56;;;;;;;3.03;2.60;;;;;;;;;;5092782;28;20539;-72
2020/12/24 07:15:23;;;;;;;3.30;2.70;;;;;;;;;;5081591;28;20176;-71
2020/12/24 07:17:50;;;;;;;3.13;2.83;;;;;;;;;;5073144;28;20176;-71
2020/12/24 07:20:17;;;;;;;4.38;3.60;;;;;;;;;;5092411;28;20206;-72
2020/12/24 07:22:44;;;;;;;3.10;2.67;;;;;;;;;;5091413;28;20592;-71
2020/12/24 07:25:10;;;;;;;4.03;3.10;;;;;;;;;;5082262;28;20188;-72
2020/12/24 07:27:46;;;;;;;5.55;3.60;;;;;;;;;;5083766;28;20525;-71
2020/12/24 07:30:13;;;;;;;5.50;3.00;;;;;;;;;;5084820;28;20207;-71
2020/12/24 07:32:39;;;;;;;5.20;3.30;;;;;;;;;;5089531;28;20573;-71
2020/12/24 07:35:05;;;;;;;3.65;3.05;;;;;;;;;;5092623;28;20572;-69
2020/12/24 07:37:32;;;;;;;6.50;3.80;;;;;;;;;;5083024;28;20652;-71
2020/12/24 07:39:58;;;;;;;5.45;4.10;;;;;;;;;;5072514;28;20196;-71
2020/12/24 07:42:24;;;;;;;5.68;3.88;;;;;;;;;;5072634;28;20172;-71
2020/12/24 07:44:50;;;;;;;5.90;4.00;;;;;;;;;;5073698;28;20180;-71
2020/12/24 07:47:16;;;;;;;8.73;4.20;;;;;;;;;;5074914;28;20490;-71
2020/12/24 07:49:51;;;;;;;4.88;3.97;;;;;;;;;;5089762;28;20195;-71
2020/12/24 07:52:18;;;;;;;5.35;3.65;;;;;;;;;;5096946;28;20171;-71
2020/12/24 07:54:44;;;;;;;4.50;3.05;;;;;;;;;;5091307;28;20239;-72
2020/12/24 07:57:10;;;;;;;4.78;3.40;;;;;;;;;;5084385;28;20175;-71
2020/12/24 07:59:36;;;;;;;4.07;2.90;;;;;;;;;;5078016;28;20196;-72
2020/12/24 08:02:05;;;;;;;4.30;3.58;;;;;;;;;;5089476;28;20180;-72
2020/12/24 08:04:31;;;;;;;5.13;3.72;;;;;;;;;;5087050;28;20262;-71
2020/12/24 08:06:57;;;;;;;4.65;3.60;;;;;;;;;;5083744;28;20187;-72
2020/12/24 08:09:23;;;;;;;3.30;2.63;;;;;;;;;;5087909;28;20208;-71
2020/12/24 08:11:54;;;;;;;5.43;3.40;;;;;;;;;;5072300;28;20183;-71
2020/12/24 08:14:24;;;;;;;5.50;3.45;;;;;;;;;;5071861;28;20292;-71
2020/12/24 08:16:50;;;;;;;5.45;3.45;;;;;;;;;;5085661;28;20181;-72
2020/12/24 08:19:23;;;;;;;7.50;3.70;;;;;;;;;;5084327;28;20199;-72
2020/12/24 08:22:18;;;;;;;5.65;3.40;;;;;;;;;;5091882;28;20175;-73
2020/12/24 08:24:45;;;;;;;4.75;2.95;;;;;;;;;;5082472;28;20191;-71
2020/12/24 08:27:11;;;;;;;4.88;3.00;;;;;;;;;;5092109;28;20896;-71
2020/12/24 08:29:38;;;;;;;3.60;2.70;;;;;;;;;;5091516;28;20289;-71
2020/12/24 08:32:04;;;;;;;4.35;2.70;;;;;;;;;;5090283;28;20179;-72
2020/12/24 08:34:30;;;;;;;4.85;2.80;;;;;;;;;;5071479;28;20210;-72
2020/12/24 08:36:56;;;;;;;3.60;2.88;;;;;;;;;;5073227;28;20271;-72
2020/12/24 08:39:22;;;;;;;4.22;2.88;;;;;;;;;;5071963;28;20196;-72
2020/12/24 08:41:58;;;;;;;4.20;3.30;;;;;;;;;;5087039;28;20183;-71
2020/12/24 08:44:25;;;;;;;4.53;2.83;;;;;;;;;;5091548;28;20655;-72
2020/12/24 08:47:10;;;;;;;6.28;3.50;;;;;;;;;;5084970;28;20229;-71
2020/12/24 08:49:43;;;;;;;4.78;3.38;;;;;;;;;;5073271;28;20203;-72
2020/12/24 08:52:09;;;;;;;5.70;3.25;;;;;;;;;;5091350;28;20186;-72
2020/12/24 08:54:35;;;;;;;7.65;3.88;;;;;;;;;;5090852;28;20199;-73
2020/12/24 08:57:02;;;;;;;7.05;4.75;;;;;;;;;;5091740;28;20180;-72
2020/12/24 08:59:28;;;;;;;4.47;3.10;;;;;;;;;;5075167;28;20204;-72
2020/12/24 09:01:56;;;;;;;4.45;3.35;;;;;;;;;;5072644;28;20180;-71
2020/12/24 09:04:22;;;;;;;7.68;4.25;;;;;;;;;;5091363;28;20288;-72
2020/12/24 09:06:48;;;;;;;7.07;3.83;;;;;;;;;;5090718;28;20232;-72
2020/12/24 09:09:20;;;;;;;5.82;3.45;;;;;;;;;;5095048;28;20260;-73
2020/12/24 09:11:47;;;;;;;4.88;3.50;;;;;;;;;;5091749;28;20194;-72
2020/12/24 09:14:16;;;;;;;5.57;3.40;;;;;;;;;;5081160;28;20204;-71
2020/12/24 09:16:52;;;;;;;5.15;3.80;;;;;;;;;;5082047;28;20233;-72
2020/12/24 09:19:18;;;;;;;6.25;4.20;;;;;;;;;;5091321;28;20191;-72
2020/12/24 09:21:50;;;;;;;4.97;3.67;;;;;;;;;;5091117;28;21036;-72
2020/12/24 09:24:16;;;;;;;12.18;4.65;;;;;;;;;;5077942;28;20187;-73
2020/12/24 09:26:46;;;;;;;8.60;3.95;;;;;;;;;;5090905;28;20183;-74
2020/12/24 09:29:13;;;;;;;7.13;4.60;;;;;;;;;;5090670;28;20200;-72
2020/12/24 09:31:39;;;;;;;6.25;4.32;;;;;;;;;;5089233;28;20179;-72
2020/12/24 09:34:05;;;;;;;6.88;4.30;;;;;;;;;;5090940;28;20295;-73
2020/12/24 09:36:32;;;;;;;7.65;5.00;;;;;;;;;;5090856;28;20197;-72
2020/12/24 09:38:58;;;;;;;7.18;5.53;;;;;;;;;;5090637;28;20229;-71
2020/12/24 09:41:24;;;;;;;5.85;5.25;;;;;;;;;;5090797;28;20183;-74
2020/12/24 09:43:50;;;;;;;7.32;5.50;;;;;;;;;;5082499;28;20215;-73
2020/12/24 09:46:16;;;;;;;10.45;5.72;;;;;;;;;;5087141;28;20188;-72
2020/12/24 09:48:43;;;;;;;8.23;5.57;;;;;;;;;;5090414;28;20194;-72
2020/12/24 09:51:09;;;;;;;8.43;6.30;;;;;;;;;;5089898;28;20225;-72
2020/12/24 09:53:35;;;;;;;7.60;6.30;;;;;;;;;;5090253;28;20241;-72
2020/12/24 09:56:01;;;;;;;9.32;6.57;;;;;;;;;;5078488;28;20193;-72
2020/12/24 09:58:27;;;;;;;8.35;6.40;;;;;;;;;;5090516;28;20229;-71
2020/12/24 10:00:53;;;;;;;10.75;6.90;;;;;;;;;;5090050;28;20203;-73
2020/12/24 10:03:19;;;;;;;7.97;6.32;;;;;;;;;;5090521;28;20190;-73
2020/12/24 10:05:45;;;;;;;9.70;6.83;;;;;;;;;;5088546;28;20282;-72
2020/12/24 10:08:11;;;;;;;8.55;6.35;;;;;;;;;;5070027;28;20427;-72
2020/12/24 10:10:37;;;;;;;12.32;6.80;;;;;;;;;;5080801;28;20252;-72
2020/12/24 10:13:03;;;;;;;9.13;6.80;;;;;;;;;;5089954;28;20640;-73
2020/12/24 10:15:29;;;;;;;9.93;6.80;;;;;;;;;;5088841;28;20282;-73
2020/12/24 10:17:56;;;;;;;12.18;6.97;;;;;;;;;;5069778;28;20263;-72
2020/12/24 10:20:22;;;;;;;10.30;7.03;;;;;;;;;;5069787;28;20295;-73
2020/12/24 10:22:48;;;;;;;10.35;6.80;;;;;;;;;;5069739;28;20600;-73
2020/12/24 10:25:14;;;;;;;11.43;6.93;;;;;;;;;;5083143;28;20184;-72
2020/12/24 10:27:40;;;;;;;8.48;6.28;;;;;;;;;;5070197;28;20214;-73
2020/12/24 10:30:06;;;;;;;9.77;6.70;;;;;;;;;;5087043;28;20258;-71
2020/12/24 10:32:33;;;;;;;10.70;7.85;;;;;;;;;;5069782;28;20183;-72
2020/12/24 10:34:59;;;;;;;15.45;8.40;;;;;;;;;;5080083;28;20556;-74
2020/12/24 10:37:25;;;;;;;16.95;8.65;;;;;;;;;;5069753;28;20259;-73
2020/12/24 10:39:51;;;;;;;16.98;9.98;;;;;;;;;;5078645;28;20214;-73
2020/12/24 10:42:17;;;;;;;15.77;9.13;;;;;;;;;;5069515;28;20259;-73
2020/12/24 10:44:44;;;;;;;18.92;11.10;;;;;;;;;;5076578;28;20195;-72
2020/12/24 10:47:10;;;;;;;19.95;11.45;;;;;;;;;;5077234;28;20256;-72
2020/12/24 10:49:39;;;;;;;24.70;13.23;;;;;;;;;;5089690;28;20203;-73
2020/12/24 10:52:05;;;;;;;26.80;14.23;;;;;;;;;;5086434;28;20182;-72
2020/12/24 10:54:30;;;;;;;28.98;15.20;;;;;;;;;;5086803;28;20207;-72
2020/12/24 10:56:56;;;;;;;25.65;14.85;;;;;;;;;;5080332;28;20180;-73
2020/12/24 10:59:22;;;;;;;26.50;14.40;;;;;;;;;;5089067;28;20195;-71
2020/12/24 11:01:49;;;;;;;24.52;14.43;;;;;;;;;;5089426;28;20409;-71
2020/12/24 11:04:15;;;;;;;30.45;15.52;;;;;;;;;;5085884;28;20939;-72
2020/12/24 11:06:43;;;;;;;27.85;16.35;;;;;;;;;;5069373;28;20200;-72
2020/12/24 11:09:10;;;;;;;26.73;15.98;;;;;;;;;;5079976;28;20577;-72
2020/12/24 11:11:36;;;;;;;28.20;15.80;;;;;;;;;;5089758;28;20180;-72
2020/12/24 11:14:02;;;;;;;28.25;17.05;;;;;;;;;;5072170;28;20204;-72
2020/12/24 11:16:28;;;;;;;22.30;15.48;;;;;;;;;;5080292;28;20183;-74
2020/12/24 11:18:54;;;;;;;28.20;15.00;;;;;;;;;;5089009;28;20175;-72
2020/12/24 11:21:20;;;;;;;25.67;14.70;;;;;;;;;;5077178;28;20184;-72
2020/12/24 11:23:47;;;;;;;29.13;16.50;;;;;;;;;;5071251;28;20183;-72
2020/12/24 11:26:25;;;;;;;22.20;14.10;;;;;;;;;;5089326;28;20181;-73
2020/12/24 11:28:51;;;;;;;25.75;15.07;;;;;;;;;;5081683;28;20179;-72
2020/12/24 11:31:28;;;;;;;27.13;14.27;;;;;;;;;;5075789;28;20252;-73
2020/12/24 11:33:54;;;;;;;26.27;14.85;;;;;;;;;;5071387;28;21036;-72
2020/12/24 11:36:21;;;;;;;27.20;16.40;;;;;;;;;;5074530;28;20267;-73
2020/12/24 11:38:47;;;;;;;26.10;15.85;;;;;;;;;;5070064;28;20254;-73
2020/12/24 11:41:14;;;;;;;25.17;15.02;;;;;;;;;;5088750;28;20214;-73
2020/12/24 11:43:40;;;;;;;25.30;14.55;;;;;;;;;;5088705;28;20262;-73
2020/12/24 11:46:08;;;;;;;28.38;15.85;;;;;;;;;;5073813;28;20192;-73
2020/12/24 11:48:34;;;;;;;26.27;16.38;;;;;;;;;;5072456;28;20187;-73
2020/12/24 11:51:00;;;;;;;25.97;15.30;;;;;;;;;;5088426;28;20675;-72
2020/12/24 11:53:26;;;;;;;30.60;16.80;;;;;;;;;;5088709;28;20453;-73
2020/12/24 11:55:52;;;;;;;32.53;15.13;;;;;;;;;;5072978;28;20426;-73
2020/12/24 11:58:18;;;;;;;22.65;15.50;;;;;;;;;;5076814;28;20659;-72
2020/12/24 12:00:44;;;;;;;27.83;15.52;;;;;;;;;;5088465;28;20191;-73
2020/12/24 12:03:10;;;;;;;27.20;15.82;;;;;;;;;;5080129;28;20179;-73
2020/12/24 12:05:36;;;;;;;30.38;15.57;;;;;;;;;;5087639;28;20659;-71
2020/12/24 12:08:02;;;;;;;26.25;16.55;;;;;;;;;;5074039;28;20192;-72
2020/12/24 12:10:28;;;;;;;25.77;15.82;;;;;;;;;;5096624;28;20197;-74
2020/12/24 12:12:55;;;;;;;28.92;15.30;;;;;;;;;;5072179;28;20180;-72
2020/12/24 12:15:21;;;;;;;26.20;14.27;;;;;;;;;;5071633;28;20299;-72
2020/12/24 12:17:47;;;;;;;27.27;15.60;;;;;;;;;;5080709;28;20203;-72
2020/12/24 12:20:13;;;;;;;23.90;14.82;;;;;;;;;;5076871;28;20196;-72
2020/12/24 12:22:39;;;;;;;23.20;13.80;;;;;;;;;;5072244;28;20583;-73
2020/12/24 12:25:05;;;;;;;20.05;12.23;;;;;;;;;;5071947;28;20536;-72
2020/12/24 12:27:31;;;;;;;21.25;12.80;;;;;;;;;;5070883;28;20533;-72
2020/12/24 12:29:57;;;;;;;18.55;12.80;;;;;;;;;;5091718;28;20676;-72
2020/12/24 12:32:23;;;;;;;17.30;11.93;;;;;;;;;;5092981;28;20194;-72
2020/12/24 12:34:49;;;;;;;18.15;12.40;;;;;;;;;;5095628;28;20248;-72
2020/12/24 12:37:17;;;;;;;17.30;10.35;;;;;;;;;;5095829;28;20179;-73
2020/12/24 12:39:43;;;;;;;17.83;11.80;;;;;;;;;;5095808;28;20211;-73
2020/12/24 12:42:09;;;;;;;16.23;11.63;;;;;;;;;;5096025;28;20502;-72
2020/12/24 12:44:35;;;;;;;13.18;10.45;;;;;;;;;;5095338;28;20198;-71
2020/12/24 12:47:01;;;;;;;15.45;11.05;;;;;;;;;;5095897;28;20209;-72
2020/12/24 12:49:27;;;;;;;15.52;10.60;;;;;;;;;;5095603;28;20195;-72
2020/12/24 12:51:53;;;;;;;12.90;9.02;;;;;;;;;;5095975;28;20181;-71
2020/12/24 12:54:19;;;;;;;20.83;9.10;;;;;;;;;;5095015;28;20286;-72
2020/12/24 12:56:45;;;;;;;12.32;8.80;;;;;;;;;;5095903;28;20582;-72
2020/12/24 12:59:11;;;;;;;12.05;8.52;;;;;;;;;;5093564;28;20634;-72
2020/12/24 13:01:37;;;;;;;11.50;8.45;;;;;;;;;;5084042;28;20179;-72
2020/12/24 13:04:03;;;;;;;9.25;7.40;;;;;;;;;;5094973;28;20184;-73
2020/12/24 13:06:29;;;;;;;9.75;7.25;;;;;;;;;;5095472;28;20220;-71
2020/12/24 13:08:55;;;;;;;15.48;7.95;;;;;;;;;;5096562;28;20183;-73
2020/12/24 13:11:21;;;;;;;8.90;7.20;;;;;;;;;;5098075;28;20207;-72
2020/12/24 13:13:47;;;;;;;9.33;6.70;;;;;;;;;;5074309;28;20195;-71
2020/12/24 13:16:13;;;;;;;9.52;7.57;;;;;;;;;;5075439;28;20409;-73
2020/12/24 13:18:39;;;;;;;10.25;6.93;;;;;;;;;;5077500;28;20182;-73
2020/12/24 13:21:05;;;;;;;10.98;7.25;;;;;;;;;;5095093;28;20192;-73
2020/12/24 13:23:32;;;;;;;9.68;7.65;;;;;;;;;;5094536;28;20177;-72
2020/12/24 13:25:58;;;;;;;19.95;7.80;;;;;;;;;;5095159;28;20232;-73
2020/12/24 13:28:25;;;;;;;11.73;6.88;;;;;;;;;;5092966;28;20233;-73
2020/12/24 13:30:51;;;;;;;10.48;7.78;;;;;;;;;;5074737;28;20238;-73
2020/12/24 13:33:17;;;;;;;11.75;7.22;;;;;;;;;;5074782;28;20180;-73
2020/12/24 13:35:43;;;;;;;11.95;7.35;;;;;;;;;;5074454;28;20180;-73
2020/12/24 13:38:09;;;;;;;8.55;7.40;;;;;;;;;;5074541;28;20255;-73
2020/12/24 13:40:35;;;;;;;10.55;7.25;;;;;;;;;;5074552;28;20203;-72
2020/12/24 13:43:01;;;;;;;11.00;7.15;;;;;;;;;;5074450;28;20533;-72
2020/12/24 13:45:27;;;;;;;11.00;7.32;;;;;;;;;;5073558;28;20176;-74
2020/12/24 13:47:53;;;;;;;9.70;7.00;;;;;;;;;;5074557;28;20225;-73
2020/12/24 13:50:19;;;;;;;9.73;6.90;;;;;;;;;;5074279;28;20195;-74
2020/12/24 13:52:45;;;;;;;9.23;6.20;;;;;;;;;;5090130;28;20581;-71
2020/12/24 13:55:11;;;;;;;14.27;6.53;;;;;;;;;;5093955;28;20251;-72
2020/12/24 13:57:37;;;;;;;9.25;6.40;;;;;;;;;;5094369;28;20183;-74
2020/12/24 14:00:04;;;;;;;7.50;6.13;;;;;;;;;;5085342;28;20204;-73
2020/12/24 14:02:30;;;;;;;12.95;6.55;;;;;;;;;;5089900;28;20505;-72
2020/12/24 14:04:59;;;;;;;9.57;6.80;;;;;;;;;;5093849;28;20179;-72
2020/12/24 14:07:25;;;;;;;9.55;7.65;;;;;;;;;;5094035;28;20254;-71
2020/12/24 14:09:52;;;;;;;10.65;6.22;;;;;;;;;;5102884;28;20232;-73
2020/12/24 14:12:18;;;;;;;9.02;6.13;;;;;;;;;;5081043;28;20188;-72
2020/12/24 14:14:44;;;;;;;7.80;5.40;;;;;;;;;;5073410;28;20211;-72
2020/12/24 14:17:10;;;;;;;7.82;5.55;;;;;;;;;;5073953;28;20180;-73
2020/12/24 14:19:36;;;;;;;7.97;5.25;;;;;;;;;;5084040;28;20183;-73
2020/12/24 14:22:04;;;;;;;9.80;5.80;;;;;;;;;;5094455;28;20182;-73
2020/12/24 14:24:30;;;;;;;7.57;5.47;;;;;;;;;;5083037;28;20176;-72
2020/12/24 14:27:02;;;;;;;11.45;5.15;;;;;;;;;;5073577;28;20247;-72
2020/12/24 14:29:28;;;;;;;5.53;4.68;;;;;;;;;;5089251;28;20199;-73
2020/12/24 14:31:55;;;;;;;7.50;5.50;;;;;;;;;;5093816;28;20183;-72
2020/12/24 14:34:21;;;;;;;6.97;4.70;;;;;;;;;;5086257;28;20643;-73
2020/12/24 14:36:53;;;;;;;7.78;4.78;;;;;;;;;;5086996;28;20199;-73